Huvudsida
METAR-TAF:

METAR-TAF

Flygplatser :

Providenciales, Turks- och Caicosöarna

latitud: 21-46-25N, longitud: 072-15-57W, höjd: 5 m

Aktuellt väderrapport

Denna rapport gjordes för 43 minuter sedan, klockan 22:00 UTC
Vind 14 kt från syd/sydost
Temperatur 30°C
Fuktighet 66%
Tryck 1013 hPa
Sikt 10 km eller mer
Spridda moln på en höjd av 1800 ft

METAR: MBPV 202200Z 16014KT 9999 SCT018 30/23 Q1013

Tid: 18:43 (22:43 UTC)

Väderprognos

Denna rapport gjordes för 7 timmar och 43 minuter sedan, klockan 15:00 UTC
Prognos gäller från 20 kl. 18 UTC till 21 kl. 18 UTC
Vind 8 kt från syd/sydost
Sikt 10 km eller mer
Spridda moln på en höjd av 2000 ft

TAF: MBPV 201500Z 2018/2118 15008KT 9999 SCT020

Aktuella väderrapporter och prognoser från 4000 flygplatser (METAR- och TAF-rapporter).

De tillgängliga stationerna syns som gula och röda prickar på kartan.

För musen över prickarna för att se namnen på stationerna.

Klicka sedan för att få väderrapporter och prognoser.

För att ändra kartan: Klicka på de gröna knapparna med ett svart kors på för att zooma in; den gröna knappen med ett streck på för att zooma ut; eller på de gröna pilarna för angränsande kartor.


METAR-TAF: